Time;durP1;ratioP1;P1;durP2;ratioP2;P2;SDS_P1;SDS_P2;PMS_P1;PMS_P2;Temp;Humidity;BMP_temperature;BMP_pressure;BME280_temperature;BME280_humidity;BME280_pressure;Samples;Min_cycle;Max_cycle;Signal;HPM_P1;HPM_P2
2021/07/19 00:00:17;;;;;;;23.23;14.45;;;;;;;15.14;100.00;96110.78;1022563;29;20019;-68
2021/07/19 00:00:48;;;;;;;20.15;14.40;;;;;;;15.12;100.00;96112.91;1022954;28;20027;-70
2021/07/19 00:01:18;;;;;;;25.58;14.20;;;;;;;15.09;100.00;96114.28;1021671;29;20028;-68
2021/07/19 00:01:49;;;;;;;23.48;15.05;;;;;;;15.09;100.00;96112.44;1022447;28;20027;-68
2021/07/19 00:02:19;;;;;;;22.27;15.73;;;;;;;15.08;100.00;96112.69;1026575;28;20019;-70
2021/07/19 00:02:54;;;;;;;21.10;14.85;;;;;;;15.06;100.00;96114.84;1026702;28;20026;-70
2021/07/19 00:03:24;;;;;;;20.70;14.07;;;;;;;15.07;100.00;96122.47;1025786;28;20015;-69
2021/07/19 00:03:55;;;;;;;19.10;14.38;;;;;;;15.05;100.00;96115.91;1022656;29;20019;-68
2021/07/19 00:04:25;;;;;;;20.63;13.93;;;;;;;15.06;100.00;96125.41;1022730;29;20021;-69
2021/07/19 00:04:56;;;;;;;21.02;15.02;;;;;;;15.06;100.00;96114.84;1022089;28;20015;-69
2021/07/19 00:05:27;;;;;;;23.98;15.43;;;;;;;15.05;100.00;96110.59;1026597;28;20018;-69
2021/07/19 00:05:57;;;;;;;20.65;15.43;;;;;;;15.07;100.00;96121.69;1022615;28;20552;-70
2021/07/19 00:06:28;;;;;;;22.13;15.63;;;;;;;15.02;100.00;96117.28;1027010;28;20033;-68
2021/07/19 00:06:58;;;;;;;22.98;15.60;;;;;;;15.04;100.00;96116.97;1026732;28;20470;-69
2021/07/19 00:07:28;;;;;;;19.83;14.57;;;;;;;15.04;100.00;96119.63;1026588;28;20038;-72
2021/07/19 00:07:59;;;;;;;24.05;15.38;;;;;;;14.97;100.00;96108.59;1026698;28;20022;-70
2021/07/19 00:08:29;;;;;;;20.63;15.73;;;;;;;15.03;100.00;96118.06;1026162;28;20026;-68
2021/07/19 00:09:00;;;;;;;24.10;15.90;;;;;;;15.06;100.00;96120.13;1026538;28;20019;-69
2021/07/19 00:09:30;;;;;;;26.90;16.38;;;;;;;15.03;100.00;96126.75;1026474;28;20039;-68
2021/07/19 00:10:02;;;;;;;22.05;15.57;;;;;;;14.99;100.00;96117.00;1030294;28;20014;-69
2021/07/19 00:10:32;;;;;;;23.58;15.60;;;;;;;15.01;100.00;96117.53;1030791;28;20018;-68
2021/07/19 00:11:03;;;;;;;22.73;14.18;;;;;;;14.99;100.00;96124.94;1030652;28;20021;-69
2021/07/19 00:11:33;;;;;;;23.60;14.85;;;;;;;14.99;100.00;96124.94;1029891;28;20496;-68
2021/07/19 00:12:05;;;;;;;25.63;14.70;;;;;;;14.94;100.00;96117.09;1029992;28;20515;-69
2021/07/19 00:12:35;;;;;;;21.40;14.95;;;;;;;15.01;100.00;96123.59;1026212;28;20082;-67
2021/07/19 00:13:06;;;;;;;21.55;14.57;;;;;;;14.99;100.00;96124.94;1018591;29;20439;-68
2021/07/19 00:13:36;;;;;;;25.25;14.18;;;;;;;15.00;100.00;96122.03;1014287;29;20040;-68
2021/07/19 00:14:07;;;;;;;22.77;16.23;;;;;;;14.98;100.00;96123.38;1014766;29;20028;-68
2021/07/19 00:14:37;;;;;;;24.10;16.50;;;;;;;14.99;100.00;96125.75;1018721;28;20054;-70
2021/07/19 00:15:11;;;;;;;21.15;15.02;;;;;;;15.00;100.00;96123.91;1018777;29;20529;-68
2021/07/19 00:15:41;;;;;;;24.42;16.45;;;;;;;15.03;100.00;96131.25;1018224;29;20107;-68
2021/07/19 00:16:12;;;;;;;23.73;16.00;;;;;;;15.01;100.00;96131.53;1018619;29;20080;-68
2021/07/19 00:16:42;;;;;;;25.92;17.30;;;;;;;15.03;100.00;96132.03;1016336;29;20039;-70
2021/07/19 00:17:15;;;;;;;26.73;16.02;;;;;;;14.92;100.00;96114.69;1022537;28;20398;-68
2021/07/19 00:17:47;;;;;;;25.48;15.77;;;;;;;15.00;100.00;96132.59;1026613;28;20039;-68
2021/07/19 00:18:17;;;;;;;25.60;15.43;;;;;;;14.92;100.00;96112.06;1026925;28;20031;-69
2021/07/19 00:18:47;;;;;;;20.40;14.63;;;;;;;14.97;100.00;96116.53;1026689;28;20587;-69
2021/07/19 00:19:18;;;;;;;21.92;15.50;;;;;;;14.98;100.00;96129.44;1026272;28;20031;-68
2021/07/19 00:19:49;;;;;;;20.83;15.48;;;;;;;14.96;100.00;96123.66;1022321;29;20027;-69
2021/07/19 00:20:23;;;;;;;21.88;15.77;;;;;;;14.93;100.00;96120.81;1018908;29;20083;-68
2021/07/19 00:20:53;;;;;;;21.70;15.30;;;;;;;14.97;100.00;96122.59;1017512;29;20027;-67
2021/07/19 00:21:24;;;;;;;23.95;16.35;;;;;;;14.97;100.00;96124.44;1017385;28;20035;-70
2021/07/19 00:21:55;;;;;;;23.50;15.70;;;;;;;14.94;100.00;96127.66;1027758;28;20030;-67
2021/07/19 00:22:25;;;;;;;24.00;16.40;;;;;;;14.95;100.00;96126.56;1014700;29;20028;-68
2021/07/19 00:22:59;;;;;;;20.48;14.63;;;;;;;14.92;100.00;96111.28;1018181;29;20035;-68
2021/07/19 00:23:29;;;;;;;24.55;15.73;;;;;;;14.93;100.00;96120.81;1013359;29;20537;-69
2021/07/19 00:24:00;;;;;;;20.80;15.23;;;;;;;14.75;100.00;96099.28;1008544;28;20036;-68
2021/07/19 00:24:30;;;;;;;23.50;15.23;;;;;;;14.89;100.00;96125.88;1027031;28;20023;-68
2021/07/19 00:25:04;;;;;;;22.33;15.10;;;;;;;14.82;100.00;96115.63;1026646;28;20027;-69
2021/07/19 00:25:34;;;;;;;22.52;16.15;;;;;;;14.86;100.00;96115.84;1022610;29;20043;-68
2021/07/19 00:26:05;;;;;;;20.20;14.32;;;;;;;14.83;100.00;96122.47;1025230;28;20072;-68
2021/07/19 00:26:35;;;;;;;21.95;15.35;;;;;;;14.83;100.00;96122.47;1023089;28;20028;-68
2021/07/19 00:27:06;;;;;;;23.52;16.45;;;;;;;14.85;100.00;96119.53;1027024;28;20027;-68
2021/07/19 00:27:36;;;;;;;22.80;16.08;;;;;;;14.83;100.00;96119.06;1030392;28;20125;-70
2021/07/19 00:28:10;;;;;;;21.33;15.65;;;;;;;14.82;100.00;96125.38;1026889;28;20713;-69
2021/07/19 00:28:40;;;;;;;22.33;15.52;;;;;;;14.75;100.00;96112.50;1031195;28;20089;-69
2021/07/19 00:29:10;;;;;;;21.02;15.07;;;;;;;14.79;100.00;96120.69;1026988;28;20019;-68
2021/07/19 00:29:41;;;;;;;23.73;14.93;;;;;;;14.75;100.00;96117.78;1028092;28;20019;-68
2021/07/19 00:30:14;;;;;;;23.35;15.30;;;;;;;14.75;100.00;96119.66;1027284;28;20082;-71
2021/07/19 00:30:44;;;;;;;23.05;15.38;;;;;;;14.66;100.00;96114.19;1023702;28;20034;-68
2021/07/19 00:31:15;;;;;;;23.58;16.30;;;;;;;14.72;100.00;96125.47;1027376;28;20102;-69
2021/07/19 00:31:46;;;;;;;23.50;16.13;;;;;;;14.73;100.00;96127.84;1018804;29;20604;-67
2021/07/19 00:32:16;;;;;;;31.08;16.88;;;;;;;14.68;100.00;96117.31;1016519;29;20039;-68
2021/07/19 00:32:47;;;;;;;25.13;15.90;;;;;;;14.67;100.00;96121.03;1020814;29;20035;-67
2021/07/19 00:33:17;;;;;;;27.77;15.52;;;;;;;14.61;100.00;96108.94;1019454;28;20035;-69
2021/07/19 00:33:48;;;;;;;24.25;15.00;;;;;;;14.67;100.00;96122.91;1027223;28;20913;-69
2021/07/19 00:34:21;;;;;;;22.45;14.95;;;;;;;14.66;100.00;96122.13;1026687;28;20110;-69
2021/07/19 00:34:51;;;;;;;23.05;14.90;;;;;;;14.65;100.00;96117.88;1027335;28;20022;-69
2021/07/19 00:35:22;;;;;;;24.20;16.67;;;;;;;14.65;100.00;96120.53;1027773;28;20477;-69
2021/07/19 00:35:52;;;;;;;20.60;15.27;;;;;;;14.65;100.00;96117.88;1031612;28;20034;-70
2021/07/19 00:36:22;;;;;;;29.60;15.20;;;;;;;14.64;100.00;96112.91;1026710;28;20500;-69
2021/07/19 00:36:54;;;;;;;24.05;16.27;;;;;;;14.63;100.00;96114.75;1027229;28;20030;-68
2021/07/19 00:37:24;;;;;;;22.40;14.80;;;;;;;14.62;100.00;96121.09;1030814;28;20081;-68
2021/07/19 00:37:55;;;;;;;22.35;14.90;;;;;;;14.54;100.00;96103.22;1022778;29;20035;-69
2021/07/19 00:38:25;;;;;;;21.08;14.10;;;;;;;14.59;100.00;96111.09;1023560;28;20027;-68
2021/07/19 00:38:56;;;;;;;22.05;14.82;;;;;;;14.49;100.00;96103.25;1023252;29;20027;-68
2021/07/19 00:39:27;;;;;;;23.13;15.55;;;;;;;14.57;100.00;96113.22;1023731;28;20035;-67
2021/07/19 00:39:58;;;;;;;23.58;15.55;;;;;;;14.55;100.00;96116.16;1025572;28;20697;-68
2021/07/19 00:40:29;;;;;;;21.98;14.40;;;;;;;14.48;100.00;96105.06;1022934;29;20019;-69
2021/07/19 00:40:59;;;;;;;25.77;15.40;;;;;;;14.55;100.00;96113.50;1019929;29;20102;-68
2021/07/19 00:41:30;;;;;;;22.02;14.30;;;;;;;14.55;100.00;96110.88;1019299;29;20074;-68
2021/07/19 00:42:00;;;;;;;22.92;14.48;;;;;;;14.57;100.00;96111.34;1023000;28;20031;-68
2021/07/19 00:42:30;;;;;;;21.90;15.98;;;;;;;14.58;100.00;96104.22;1027301;28;20026;-68
2021/07/19 00:43:01;;;;;;;19.77;14.02;;;;;;;14.51;100.00;96104.53;1031242;28;20094;-68
2021/07/19 00:43:32;;;;;;;26.30;14.75;;;;;;;14.56;100.00;96120.34;1027535;28;20023;-68
2021/07/19 00:44:02;;;;;;;25.27;14.70;;;;;;;14.55;100.00;96110.06;1027403;28;20065;-68
2021/07/19 00:44:33;;;;;;;22.33;14.90;;;;;;;14.57;100.00;96115.84;1023018;29;20485;-69
2021/07/19 00:45:15;;;;;;;23.52;15.13;;;;;;;14.57;100.00;96113.22;1023461;29;20034;-69
2021/07/19 00:45:45;;;;;;;33.85;14.18;;;;;;;14.53;100.00;96106.91;1023416;29;20816;-68
2021/07/19 00:46:15;;;;;;;22.63;14.07;;;;;;;14.56;100.00;96112.44;1024383;28;20028;-69
2021/07/19 00:46:52;;;;;;;30.08;15.38;;;;;;;14.53;100.00;96106.91;1023337;29;20031;-68
2021/07/19 00:47:23;;;;;;;23.00;15.60;;;;;;;14.57;100.00;96108.72;1029748;28;20018;-68
2021/07/19 00:47:55;;;;;;;24.02;14.95;;;;;;;14.58;100.00;96114.78;1020099;29;20111;-69
2021/07/19 00:48:26;;;;;;;21.88;15.75;;;;;;;14.57;100.00;96114.00;1023453;29;20027;-68
2021/07/19 00:48:56;;;;;;;21.48;14.88;;;;;;;14.56;100.00;96114.28;1019090;29;20279;-69
2021/07/19 00:49:30;;;;;;;17.65;13.38;;;;;;;14.52;100.00;96114.06;1020104;28;20404;-69
2021/07/19 00:50:00;;;;;;;24.35;14.70;;;;;;;14.54;100.00;96113.78;1022033;29;20038;-68
2021/07/19 00:50:40;;;;;;;23.60;14.80;;;;;;;14.53;100.00;96117.47;1019881;29;20032;-70
2021/07/19 00:51:11;;;;;;;23.10;14.77;;;;;;;14.46;100.00;96111.72;1023010;29;20050;-69
2021/07/19 00:51:42;;;;;;;23.27;15.82;;;;;;;14.54;100.00;96121.69;1020625;29;20037;-69
2021/07/19 00:52:12;;;;;;;26.77;14.88;;;;;;;14.51;100.00;96119.59;1019251;29;20031;-68
2021/07/19 00:52:45;;;;;;;22.80;14.90;;;;;;;14.50;100.00;96115.38;1021239;29;20024;-68
2021/07/19 00:53:16;;;;;;;21.02;14.80;;;;;;;14.49;100.00;96116.44;1023786;28;20033;-68
2021/07/19 00:53:46;;;;;;;24.08;15.20;;;;;;;14.46;100.00;96111.72;1023142;29;20800;-70
2021/07/19 00:54:21;;;;;;;23.05;14.85;;;;;;;14.39;100.00;96104.91;1023510;28;20388;-68
2021/07/19 00:54:52;;;;;;;25.40;14.85;;;;;;;14.44;100.00;96111.97;1018849;29;20034;-68
2021/07/19 00:55:22;;;;;;;22.80;15.27;;;;;;;14.45;100.00;96118.03;1020115;29;20252;-70
2021/07/19 00:55:54;;;;;;;24.02;15.32;;;;;;;14.45;100.00;96115.41;1024577;28;20020;-68
2021/07/19 00:56:25;;;;;;;21.33;15.93;;;;;;;14.39;100.00;96104.13;1028163;28;20023;-68
2021/07/19 00:56:55;;;;;;;23.30;15.80;;;;;;;14.44;100.00;96113.84;1023401;29;20019;-68
2021/07/19 00:57:26;;;;;;;24.35;15.75;;;;;;;14.45;100.00;96118.03;1022910;29;20020;-68
2021/07/19 00:58:00;;;;;;;23.90;15.60;;;;;;;14.44;100.00;96105.91;1019487;29;20028;-70
2021/07/19 00:58:31;;;;;;;25.42;15.43;;;;;;;14.49;100.00;96119.09;1017305;29;20028;-68
2021/07/19 00:59:01;;;;;;;23.23;17.20;;;;;;;14.47;100.00;96118.56;1019559;29;20055;-69
2021/07/19 00:59:33;;;;;;;24.85;16.65;;;;;;;14.42;100.00;96108.03;1016063;29;20035;-69
2021/07/19 01:00:13;;;;;;;23.30;15.57;;;;;;;14.41;100.00;96115.16;1024004;28;20023;-68
2021/07/19 01:00:45;;;;;;;20.65;14.05;;;;;;;14.39;100.00;96117.31;1019338;29;20435;-67
2021/07/19 01:01:15;;;;;;;23.80;15.15;;;;;;;14.35;100.00;96111.81;1019324;29;20501;-69
2021/07/19 01:01:46;;;;;;;23.65;15.85;;;;;;;14.32;100.00;96108.94;1022494;28;20287;-68
2021/07/19 01:02:17;;;;;;;24.67;16.90;;;;;;;14.34;100.00;96112.06;1023229;29;20034;-68
2021/07/19 01:02:48;;;;;;;25.52;15.80;;;;;;;14.35;100.00;96122.38;1023553;29;20740;-69
2021/07/19 01:03:19;;;;;;;24.50;16.50;;;;;;;14.34;100.00;96115.47;1015505;29;20525;-70
2021/07/19 01:03:49;;;;;;;22.52;15.75;;;;;;;14.32;100.00;96112.34;1022673;29;20031;-68
2021/07/19 01:04:20;;;;;;;25.00;16.88;;;;;;;14.30;100.00;96118.97;1019575;29;20465;-69
2021/07/19 01:04:50;;;;;;;22.70;15.93;;;;;;;14.32;100.00;96111.56;1023361;29;20016;-69
2021/07/19 01:05:21;;;;;;;27.73;16.58;;;;;;;14.31;100.00;96118.69;1023182;29;20103;-68
2021/07/19 01:05:51;;;;;;;23.08;16.15;;;;;;;14.26;100.00;96105.53;1023297;29;20027;-69
2021/07/19 01:06:22;;;;;;;23.83;15.95;;;;;;;14.35;100.00;96122.38;1019455;29;20023;-69
2021/07/19 01:06:54;;;;;;;25.55;16.17;;;;;;;14.36;100.00;96123.16;1018808;29;20033;-68
2021/07/19 01:07:24;;;;;;;29.10;17.02;;;;;;;14.33;100.00;96107.84;1019370;29;20033;-69
2021/07/19 01:07:55;;;;;;;25.70;15.57;;;;;;;14.38;100.00;96121.00;1027170;28;20106;-67
2021/07/19 01:08:26;;;;;;;26.00;16.52;;;;;;;14.31;100.00;96108.13;1023609;29;20039;-68
2021/07/19 01:08:57;;;;;;;24.00;16.58;;;;;;;14.37;100.00;96117.56;1018843;29;20115;-69
2021/07/19 01:09:28;;;;;;;26.48;16.70;;;;;;;14.37;100.00;96116.78;1015548;29;20479;-69
2021/07/19 01:09:59;;;;;;;21.50;15.95;;;;;;;14.36;100.00;96118.66;1015388;29;20039;-67
2021/07/19 01:10:29;;;;;;;28.92;15.60;;;;;;;14.36;100.00;96118.66;1017845;29;20065;-68
2021/07/19 01:11:00;;;;;;;27.02;17.35;;;;;;;14.38;100.00;96121.81;1015550;29;20059;-68
2021/07/19 01:11:30;;;;;;;25.23;16.83;;;;;;;14.31;100.00;96115.25;1015487;29;20059;-69
2021/07/19 01:12:01;;;;;;;21.65;17.23;;;;;;;14.36;100.00;96121.28;1014362;29;20032;-69
2021/07/19 01:12:34;;;;;;;22.45;16.60;;;;;;;14.37;100.00;96120.22;1015638;29;20111;-69
2021/07/19 01:13:05;;;;;;;22.70;16.60;;;;;;;14.37;100.00;96130.78;1019695;29;20058;-69
2021/07/19 01:13:36;;;;;;;24.55;16.67;;;;;;;14.36;100.00;96118.66;1023650;28;20110;-66
2021/07/19 01:14:06;;;;;;;23.88;15.98;;;;;;;14.35;100.00;96121.56;1017844;29;20024;-69
2021/07/19 01:14:37;;;;;;;22.77;16.77;;;;;;;14.34;100.00;96123.41;1023212;29;20038;-69
2021/07/19 01:15:07;;;;;;;27.98;17.25;;;;;;;14.35;100.00;96122.38;1019531;29;20047;-68
2021/07/19 01:15:38;;;;;;;24.75;17.08;;;;;;;14.32;100.00;96122.13;1015228;29;20035;-69
2021/07/19 01:16:09;;;;;;;24.65;16.63;;;;;;;14.31;100.00;96123.97;1019547;29;20027;-69
2021/07/19 01:16:39;;;;;;;21.08;16.15;;;;;;;14.31;100.00;96120.53;1019630;29;20031;-68
2021/07/19 01:17:10;;;;;;;24.92;16.73;;;;;;;14.28;100.00;96119.22;1024630;28;20513;-68
2021/07/19 01:17:41;;;;;;;24.23;17.00;;;;;;;14.22;100.00;96109.78;1026987;28;20710;-68
2021/07/19 01:18:12;;;;;;;24.55;17.17;;;;;;;14.26;100.00;96117.94;1023543;28;20030;-70
2021/07/19 01:18:45;;;;;;;26.00;16.98;;;;;;;14.27;100.00;96130.06;1023333;29;20085;-69
2021/07/19 01:19:16;;;;;;;23.48;16.73;;;;;;;14.26;100.00;96123.22;1023382;29;20023;-68
2021/07/19 01:19:48;;;;;;;24.45;16.85;;;;;;;14.24;100.00;96123.50;1023282;29;20038;-69
2021/07/19 01:20:26;;;;;;;25.15;17.00;;;;;;;14.24;100.00;96130.63;1020159;29;20035;-69
2021/07/19 01:20:59;;;;;;;27.50;17.92;;;;;;;14.23;100.00;96124.56;1026793;28;20551;-68
2021/07/19 01:21:57;;;;;;;25.20;17.27;;;;;;;14.23;100.00;96129.06;1027312;28;20065;-69
2021/07/19 01:23:00;;;;;;;25.60;16.80;;;;;;;14.20;100.00;96130.38;1023300;28;20130;-70
2021/07/19 01:23:54;;;;;;;25.55;16.98;;;;;;;14.19;100.00;96125.41;1021176;28;20272;-68
2021/07/19 01:24:56;;;;;;;24.63;16.38;;;;;;;14.24;100.00;96126.13;1034338;28;20121;-68
2021/07/19 01:25:35;;;;;;;;;;;;;;;14.24;100.00;96125.34;1031884;28;20850;-69
2021/07/19 01:26:25;;;;;;;29.35;16.40;;;;;;;14.20;100.00;96122.47;1031505;28;19964;-70
2021/07/19 01:26:56;;;;;;;32.95;17.73;;;;;;;14.20;100.00;96122.47;1027254;28;20811;-68
2021/07/19 01:27:57;;;;;;;24.35;16.80;;;;;;;14.19;100.00;96122.75;1030955;28;20138;-69
2021/07/19 01:28:46;;;;;;;27.55;17.33;;;;;;;14.18;100.00;96127.22;1031857;28;20045;-68
2021/07/19 01:29:16;;;;;;;23.10;16.00;;;;;;;14.19;100.00;96120.91;1028752;28;20381;-69
2021/07/19 01:29:47;;;;;;;25.35;17.05;;;;;;;14.17;100.00;96128.28;1027591;28;20315;-69
2021/07/19 01:30:18;;;;;;;27.50;16.10;;;;;;;14.18;100.00;96121.94;1019639;29;20059;-69
2021/07/19 01:30:48;;;;;;;26.42;16.90;;;;;;;14.18;100.00;96127.22;1016060;29;20036;-69
2021/07/19 01:31:38;;;;;;;28.38;18.08;;;;;;;14.13;100.00;96119.34;1015491;29;20032;-69
2021/07/19 01:32:08;;;;;;;24.23;16.45;;;;;;;14.15;100.00;96122.50;1021273;29;20046;-67
2021/07/19 01:32:40;;;;;;;26.17;17.17;;;;;;;14.12;100.00;96129.13;1022754;29;20271;-69
2021/07/19 01:33:11;;;;;;;23.27;15.90;;;;;;;14.01;100.00;96111.00;1023320;28;20465;-69
2021/07/19 01:33:45;;;;;;;24.92;16.77;;;;;;;14.09;100.00;96119.13;1015343;29;20125;-67
2021/07/19 01:34:20;;;;;;;30.45;17.02;;;;;;;14.12;100.00;96123.06;1024972;28;20031;-69
2021/07/19 01:34:51;;;;;;;27.88;16.80;;;;;;;14.10;100.00;96119.91;1026886;28;20423;-69
2021/07/19 01:35:22;;;;;;;27.33;17.45;;;;;;;14.08;100.00;96122.84;1031222;28;20264;-68
2021/07/19 01:35:52;;;;;;;23.60;17.38;;;;;;;14.07;100.00;96120.44;1023215;28;20026;-69
2021/07/19 01:36:25;;;;;;;35.85;17.95;;;;;;;14.08;100.00;96122.03;1019282;29;20020;-70
2021/07/19 01:36:57;;;;;;;24.10;15.98;;;;;;;14.07;100.00;96120.44;1023139;29;20059;-68
2021/07/19 01:37:27;;;;;;;26.98;18.42;;;;;;;14.08;100.00;96122.03;1023280;29;20037;-69
2021/07/19 01:37:58;;;;;;;28.58;18.38;;;;;;;13.96;100.00;96103.13;1018338;29;20389;-69
2021/07/19 01:38:28;;;;;;;23.35;16.48;;;;;;;14.05;100.00;96120.75;1019592;29;20050;-70
2021/07/19 01:39:02;;;;;;;27.13;18.23;;;;;;;14.05;100.00;96118.09;1019094;29;20779;-69
2021/07/19 01:39:32;;;;;;;25.52;17.75;;;;;;;14.06;100.00;96121.53;1016075;29;20038;-71
2021/07/19 01:40:04;;;;;;;27.58;17.20;;;;;;;13.99;100.00;96108.63;1023402;29;20049;-69
2021/07/19 01:40:35;;;;;;;25.48;17.33;;;;;;;14.03;100.00;96114.16;1027961;28;20456;-69
2021/07/19 01:41:06;;;;;;;25.30;17.40;;;;;;;14.05;100.00;96117.28;1025092;28;20023;-67
2021/07/19 01:41:36;;;;;;;24.30;16.58;;;;;;;14.01;100.00;96106.50;1019580;29;20228;-68
2021/07/19 01:42:07;;;;;;;25.23;16.70;;;;;;;14.04;100.00;96113.88;1018828;29;20034;-68
2021/07/19 01:42:38;;;;;;;24.65;16.90;;;;;;;14.03;100.00;96117.56;1019010;29;20031;-69
2021/07/19 01:43:14;;;;;;;24.50;16.63;;;;;;;14.03;100.00;96114.16;1017233;29;20039;-68
2021/07/19 01:43:48;;;;;;;24.27;16.83;;;;;;;14.02;100.00;96107.31;1017199;29;20316;-68
2021/07/19 01:44:18;;;;;;;21.80;15.88;;;;;;;13.99;100.00;96105.22;1024036;28;20034;-69
2021/07/19 01:44:49;;;;;;;26.88;16.90;;;;;;;14.01;100.00;96111.00;1019003;29;20283;-69
2021/07/19 01:45:22;;;;;;;25.23;17.52;;;;;;;14.00;100.00;96107.56;1023003;29;20062;-68
2021/07/19 01:45:53;;;;;;;26.08;17.83;;;;;;;13.98;100.00;96114.97;1023009;29;20267;-69
2021/07/19 01:46:23;;;;;;;25.77;16.50;;;;;;;13.99;100.00;96113.13;1018602;29;20019;-69
2021/07/19 01:46:54;;;;;;;27.27;17.50;;;;;;;13.97;100.00;96110.75;1015609;29;20032;-68
2021/07/19 01:47:24;;;;;;;27.50;17.00;;;;;;;13.99;100.00;96108.63;1018966;29;20038;-68
2021/07/19 01:47:55;;;;;;;26.88;17.52;;;;;;;13.93;100.00;96103.66;1018973;28;20031;-68
2021/07/19 01:48:25;;;;;;;27.90;17.95;;;;;;;13.87;100.00;96085.22;1023171;28;20019;-69
2021/07/19 01:48:56;;;;;;;30.60;18.40;;;;;;;14.05;100.00;96112.00;1022946;29;20023;-67
2021/07/19 01:49:27;;;;;;;31.63;19.90;;;;;;;13.99;100.00;96102.59;1022290;28;20459;-68
2021/07/19 01:50:00;;;;;;;28.02;18.90;;;;;;;14.03;100.00;96109.66;1018890;29;20032;-69
2021/07/19 01:50:32;;;;;;;32.97;19.80;;;;;;;14.04;100.00;96105.16;1015281;29;20584;-69
2021/07/19 01:51:03;;;;;;;23.75;16.45;;;;;;;14.00;100.00;96110.22;1023108;29;20038;-69
2021/07/19 01:51:33;;;;;;;25.67;17.27;;;;;;;13.97;100.00;96099.41;1022702;28;20722;-67
2021/07/19 01:52:04;;;;;;;25.38;17.77;;;;;;;14.02;100.00;96109.94;1022100;28;20030;-67
2021/07/19 01:52:35;;;;;;;28.55;18.10;;;;;;;14.03;100.00;96108.88;1018938;29;20030;-68
2021/07/19 01:53:05;;;;;;;27.73;17.50;;;;;;;13.97;100.00;96102.06;1022553;28;20054;-69
2021/07/19 01:53:36;;;;;;;26.95;17.35;;;;;;;14.01;100.00;96108.34;1026910;28;20619;-69
2021/07/19 01:54:06;;;;;;;27.90;18.15;;;;;;;13.94;100.00;96098.09;1031235;28;20871;-68
2021/07/19 01:54:37;;;;;;;29.40;17.60;;;;;;;14.01;100.00;96106.50;1034345;28;20030;-68
2021/07/19 01:55:08;;;;;;;32.53;18.02;;;;;;;14.01;100.00;96116.28;1035091;28;20034;-69
2021/07/19 01:55:38;;;;;;;22.50;15.75;;;;;;;13.94;100.00;96100.75;1030644;28;20031;-70
2021/07/19 01:56:09;;;;;;;34.63;18.55;;;;;;;13.99;100.00;96113.13;1023241;28;20027;-69
2021/07/19 01:56:39;;;;;;;31.80;17.63;;;;;;;14.00;100.00;96112.06;1022764;28;20050;-68
2021/07/19 01:57:09;;;;;;;31.40;17.95;;;;;;;13.97;100.00;96110.75;1023114;28;20492;-68
2021/07/19 01:57:40;;;;;;;23.83;17.63;;;;;;;13.99;100.00;96107.84;1022957;29;20524;-68
2021/07/19 01:58:11;;;;;;;27.27;17.77;;;;;;;14.01;100.00;96111.00;1013110;29;20526;-68
2021/07/19 01:58:42;;;;;;;32.55;17.50;;;;;;;14.00;100.00;96115.47;1015086;29;20020;-67
2021/07/19 01:59:12;;;;;;;27.63;16.90;;;;;;;14.00;100.00;96109.44;1015098;29;20051;-70
2021/07/19 01:59:43;;;;;;;26.58;17.23;;;;;;;14.02;100.00;96117.88;1017072;29;20035;-69
2021/07/19 02:00:14;;;;;;;29.77;18.25;;;;;;;14.00;100.00;96114.69;1019318;29;20031;-69
2021/07/19 02:00:45;;;;;;;23.60;17.25;;;;;;;13.96;100.00;96108.41;1023227;28;20184;-69
2021/07/19 02:01:16;;;;;;;24.60;17.00;;;;;;;13.94;100.00;96105.25;1023288;28;20058;-69
2021/07/19 02:01:49;;;;;;;26.30;17.83;;;;;;;13.96;100.00;96117.09;1018374;29;20024;-68
2021/07/19 02:02:20;;;;;;;24.58;16.20;;;;;;;13.96;100.00;96118.97;1019064;29;20027;-68
2021/07/19 02:02:51;;;;;;;23.40;16.02;;;;;;;13.91;100.00;96115.28;1015079;29;20122;-68
2021/07/19 02:03:22;;;;;;;25.92;16.60;;;;;;;13.93;100.00;96119.50;1018484;29;20301;-68
2021/07/19 02:03:53;;;;;;;26.60;18.73;;;;;;;13.94;100.00;96121.06;1015012;29;20151;-67
2021/07/19 02:04:26;;;;;;;25.23;17.60;;;;;;;13.93;100.00;96120.28;1023314;28;20050;-68
2021/07/19 02:04:56;;;;;;;24.63;17.38;;;;;;;13.93;100.00;96119.50;1022530;29;20070;-68
2021/07/19 02:05:27;;;;;;;26.20;16.67;;;;;;;13.94;100.00;96111.31;1022980;29;20019;-69
2021/07/19 02:05:57;;;;;;;24.13;17.33;;;;;;;13.93;100.00;96124.78;1018887;29;20028;-69
2021/07/19 02:06:28;;;;;;;25.90;16.73;;;;;;;13.91;100.00;96122.41;1019059;29;20107;-69
2021/07/19 02:06:58;;;;;;;25.80;17.70;;;;;;;13.90;100.00;96126.09;1022440;29;20501;-68
2021/07/19 02:07:29;;;;;;;23.15;17.42;;;;;;;13.90;100.00;96116.34;1026834;28;20074;-68
2021/07/19 02:08:00;;;;;;;25.90;17.98;;;;;;;13.90;100.00;96124.25;1030900;28;20038;-68
2021/07/19 02:08:31;;;;;;;32.20;19.23;;;;;;;13.94;100.00;96123.72;1022667;29;20881;-68
2021/07/19 02:09:05;;;;;;;27.38;18.40;;;;;;;13.96;100.00;96116.31;1023234;28;20329;-69
2021/07/19 02:09:36;;;;;;;35.10;21.35;;;;;;;13.99;100.00;96126.31;1022989;29;20322;-69
2021/07/19 02:10:07;;;;;;;28.23;18.85;;;;;;;13.98;100.00;96125.50;1020549;28;20083;-68
2021/07/19 02:10:38;;;;;;;29.63;19.30;;;;;;;13.97;100.00;96131.06;1022879;29;20444;-68
2021/07/19 02:11:09;;;;;;;27.48;18.48;;;;;;;13.97;100.00;96125.81;1030935;28;20076;-68
2021/07/19 02:11:39;;;;;;;29.95;19.05;;;;;;;14.00;100.00;96130.53;1030353;28;20027;-66
2021/07/19 02:12:10;;;;;;;27.02;17.45;;;;;;;13.99;100.00;96128.97;1022506;29;20053;-69
2021/07/19 02:12:43;;;;;;;28.05;18.00;;;;;;;13.99;100.00;96129.75;1023354;28;20031;-69
2021/07/19 02:13:14;;;;;;;29.17;18.13;;;;;;;13.98;100.00;96127.38;1018957;29;20030;-68
2021/07/19 02:13:45;;;;;;;28.73;18.08;;;;;;;13.99;100.00;96121.06;1022406;28;20290;-68
2021/07/19 02:14:15;;;;;;;26.55;18.05;;;;;;;13.99;100.00;96126.31;1022648;29;20031;-68
2021/07/19 02:14:45;;;;;;;27.92;17.50;;;;;;;14.01;100.00;96126.81;1026958;28;20022;-68
2021/07/19 02:15:18;;;;;;;28.30;19.33;;;;;;;14.01;100.00;96132.09;1022993;28;20039;-69
2021/07/19 02:15:49;;;;;;;27.42;18.00;;;;;;;13.99;100.00;96128.97;1020430;29;20099;-70
2021/07/19 02:16:23;;;;;;;25.95;19.02;;;;;;;13.99;100.00;96124.47;1023411;28;20023;-68
2021/07/19 02:16:54;;;;;;;25.48;17.40;;;;;;;13.99;100.00;96119.19;1025324;28;20493;-69
2021/07/19 02:17:24;;;;;;;27.63;17.95;;;;;;;14.00;100.00;96123.41;1022844;29;20263;-69
2021/07/19 02:17:56;;;;;;;32.70;17.92;;;;;;;13.95;100.00;96120.00;1022941;29;20716;-68
2021/07/19 02:18:26;;;;;;;29.27;18.20;;;;;;;14.01;100.00;96132.09;1014853;29;20103;-68
2021/07/19 02:18:58;;;;;;;27.20;17.05;;;;;;;13.95;100.00;96117.34;1018609;29;20268;-70
2021/07/19 02:19:28;;;;;;;24.42;16.35;;;;;;;13.93;100.00;96122.13;1022995;29;20027;-70
2021/07/19 02:19:59;;;;;;;26.35;18.05;;;;;;;13.93;100.00;96124.78;1026967;28;20026;-68
2021/07/19 02:20:32;;;;;;;26.85;17.15;;;;;;;13.91;100.00;96120.53;1022549;29;20587;-67
2021/07/19 02:21:04;;;;;;;26.27;17.92;;;;;;;13.93;100.00;96127.41;1019191;29;20054;-68
2021/07/19 02:21:35;;;;;;;25.13;17.33;;;;;;;13.93;100.00;96127.41;1023640;28;20948;-68
2021/07/19 02:22:06;;;;;;;26.10;17.63;;;;;;;13.94;100.00;96126.34;1018647;29;20028;-69
2021/07/19 02:22:41;;;;;;;25.33;17.73;;;;;;;13.93;100.00;96125.56;1019375;29;20034;-69
2021/07/19 02:23:12;;;;;;;23.17;15.80;;;;;;;13.91;100.00;96117.13;1018849;29;20026;-69
2021/07/19 02:23:45;;;;;;;23.38;16.60;;;;;;;13.92;100.00;96126.63;1023536;28;20038;-68
2021/07/19 02:24:16;;;;;;;31.23;19.17;;;;;;;13.87;100.00;96118.75;1022698;29;20035;-68
2021/07/19 02:24:47;;;;;;;26.88;16.92;;;;;;;13.89;100.00;96122.69;1022660;28;20275;-68
2021/07/19 02:25:18;;;;;;;23.38;16.02;;;;;;;13.83;100.00;96118.50;1022669;29;20267;-69